createdAt,value
2022-12-03T00:04:55.921Z,11.07
2022-12-03T00:09:57.544Z,13.02
2022-12-03T00:14:59.025Z,12.10
2022-12-03T00:20:00.506Z,11.23
2022-12-03T00:25:01.965Z,9.50
2022-12-03T00:30:04.203Z,11.52
2022-12-03T00:35:05.973Z,15.23
2022-12-03T00:40:08.002Z,14.82
2022-12-03T00:45:09.780Z,11.93
2022-12-03T00:50:11.493Z,14.80
2022-12-03T00:55:12.943Z,14.60
2022-12-03T01:00:14.629Z,11.30
2022-12-03T01:05:16.161Z,12.82
2022-12-03T01:10:17.765Z,12.98
2022-12-03T01:15:19.246Z,12.02
2022-12-03T01:20:20.802Z,10.77
2022-12-03T01:25:22.346Z,10.13
2022-12-03T01:30:23.799Z,12.70
2022-12-03T01:35:25.267Z,11.07
2022-12-03T01:40:26.745Z,13.30
2022-12-03T01:45:28.217Z,10.20
2022-12-03T01:50:30.692Z,8.48
2022-12-03T01:55:32.196Z,11.73
2022-12-03T02:00:33.773Z,9.25
2022-12-03T02:05:35.259Z,11.40
2022-12-03T02:10:36.948Z,13.80
2022-12-03T02:15:38.876Z,10.18
2022-12-03T02:20:52.186Z,17.98
2022-12-03T02:25:53.645Z,13.45
2022-12-03T02:30:55.103Z,13.38
2022-12-03T02:36:01.967Z,15.30
2022-12-03T02:41:07.757Z,14.52
2022-12-03T02:46:09.212Z,14.75
2022-12-03T02:51:10.740Z,12.90
2022-12-03T02:56:13.733Z,14.27
2022-12-03T03:01:15.524Z,15.15
2022-12-03T03:06:17.340Z,13.77
2022-12-03T03:11:18.813Z,18.35
2022-12-03T03:16:20.307Z,12.63
2022-12-03T03:21:21.847Z,13.57
2022-12-03T03:26:23.307Z,16.60
2022-12-03T03:31:24.838Z,14.13
2022-12-03T03:36:26.364Z,11.30
2022-12-03T03:41:27.919Z,15.63
2022-12-03T03:46:29.710Z,21.70
2022-12-03T03:51:31.281Z,15.65
2022-12-03T03:56:32.802Z,17.13
2022-12-03T04:01:34.368Z,19.50
2022-12-03T04:06:35.855Z,13.65
2022-12-03T04:11:55.599Z,11.50
2022-12-03T04:16:57.100Z,10.85
2022-12-03T04:22:17.193Z,14.40
2022-12-03T04:27:36.956Z,10.30
2022-12-03T04:32:57.108Z,17.38
2022-12-03T04:37:58.615Z,12.77
2022-12-03T04:43:00.097Z,17.58
2022-12-03T04:48:01.571Z,10.93
2022-12-03T04:53:03.024Z,12.77
2022-12-03T04:58:04.544Z,11.70
2022-12-03T05:03:06.082Z,11.65
2022-12-03T05:08:08.227Z,14.13
2022-12-03T05:13:09.759Z,23.38
2022-12-03T05:18:11.211Z,10.68
2022-12-03T05:23:13.170Z,13.07
2022-12-03T05:28:14.649Z,14.15
2022-12-03T05:33:16.387Z,16.15
2022-12-03T05:38:17.837Z,14.40
2022-12-03T05:43:19.330Z,15.15
2022-12-03T05:48:20.959Z,13.45
2022-12-03T05:53:22.425Z,14.52
2022-12-03T05:58:23.883Z,22.17
2022-12-03T06:03:25.432Z,14.32
2022-12-03T06:08:27.003Z,15.75
2022-12-03T06:13:28.478Z,12.13
2022-12-03T06:18:29.931Z,15.73
2022-12-03T06:23:31.394Z,16.92
2022-12-03T06:28:32.839Z,14.38
2022-12-03T06:33:34.298Z,15.18
2022-12-03T06:38:35.760Z,18.08
2022-12-03T06:43:37.248Z,17.20
2022-12-03T06:48:38.695Z,20.83
2022-12-03T06:53:40.153Z,15.32
2022-12-03T06:58:41.644Z,15.15
2022-12-03T07:03:43.127Z,18.38
2022-12-03T07:08:44.583Z,25.92
2022-12-03T07:13:46.041Z,16.17
2022-12-03T07:18:47.507Z,19.48
2022-12-03T07:23:48.959Z,19.17
2022-12-03T07:28:50.416Z,18.73
2022-12-03T07:33:51.870Z,16.38
2022-12-03T07:38:53.324Z,13.57
2022-12-03T07:43:54.782Z,14.45
2022-12-03T07:48:56.305Z,17.30
2022-12-03T07:53:57.759Z,13.18
2022-12-03T07:58:59.217Z,14.27
2022-12-03T08:04:00.703Z,13.05
2022-12-03T08:09:02.158Z,17.65
2022-12-03T08:14:13.553Z,14.50
2022-12-03T08:19:15.757Z,15.05
2022-12-03T08:24:19.713Z,13.07
2022-12-03T08:29:21.620Z,10.77
2022-12-03T08:34:24.491Z,12.70
2022-12-03T08:39:25.773Z,9.32
2022-12-03T08:44:32.462Z,13.13
2022-12-03T08:49:33.919Z,14.00
2022-12-03T08:54:35.363Z,9.70
2022-12-03T08:59:39.343Z,14.18
2022-12-03T09:04:45.287Z,10.23
2022-12-03T09:09:46.738Z,8.43
2022-12-03T09:14:48.203Z,10.13
2022-12-03T09:19:49.682Z,11.70
2022-12-03T09:24:51.327Z,16.70
2022-12-03T09:29:52.875Z,15.32
2022-12-03T09:34:54.570Z,12.40
2022-12-03T09:39:56.319Z,13.00
2022-12-03T09:44:57.762Z,18.90
2022-12-03T09:49:59.248Z,8.93
2022-12-03T09:55:03.379Z,12.02
2022-12-03T10:00:18.840Z,11.93
2022-12-03T10:05:20.419Z,11.80
2022-12-03T10:10:22.891Z,10.45
2022-12-03T10:15:24.357Z,12.73
2022-12-03T10:20:25.888Z,12.63
2022-12-03T10:25:27.352Z,13.88
2022-12-03T10:30:29.081Z,11.38
2022-12-03T10:35:38.293Z,14.50
2022-12-03T10:40:39.761Z,11.43
2022-12-03T10:45:42.551Z,11.68
2022-12-03T10:50:56.669Z,10.98
2022-12-03T10:55:59.667Z,11.07
2022-12-03T11:01:03.320Z,10.85
2022-12-03T11:06:04.979Z,7.20
2022-12-03T11:11:07.700Z,9.57
2022-12-03T11:16:09.253Z,12.13
2022-12-03T11:21:13.645Z,10.00
2022-12-03T11:26:19.206Z,8.15
2022-12-03T11:31:41.524Z,9.15
2022-12-03T11:37:11.077Z,6.60
2022-12-03T11:42:27.391Z,10.18
2022-12-03T11:47:29.732Z,9.95
2022-12-03T11:52:33.118Z,7.63
2022-12-03T12:02:39.487Z,7.72
2022-12-03T12:07:56.291Z,4.28
2022-12-03T12:12:57.792Z,5.53
2022-12-03T12:18:37.245Z,8.43
2022-12-03T12:23:38.728Z,6.18
2022-12-03T12:28:40.178Z,4.78
2022-12-03T12:33:41.630Z,6.25
2022-12-03T12:38:43.074Z,5.60
2022-12-03T12:43:44.533Z,4.70
2022-12-03T12:48:45.984Z,5.20
2022-12-03T12:53:47.821Z,3.97
2022-12-03T12:58:49.312Z,3.00
2022-12-03T13:03:51.327Z,3.15
2022-12-03T13:08:52.776Z,3.78
2022-12-03T13:13:54.232Z,3.65
2022-12-03T13:18:56.557Z,2.92
2022-12-03T13:23:58.028Z,5.53
2022-12-03T13:28:59.525Z,4.97
2022-12-03T13:34:00.979Z,5.38
2022-12-03T13:39:09.731Z,4.47
2022-12-03T13:44:16.575Z,3.65
2022-12-03T13:49:22.948Z,4.45
2022-12-03T13:54:26.284Z,4.55
2022-12-03T14:04:29.105Z,3.78
2022-12-03T14:09:30.563Z,4.15
2022-12-03T14:14:32.036Z,4.82
2022-12-03T14:19:33.558Z,6.25
2022-12-03T14:24:35.024Z,6.45
2022-12-03T14:29:36.500Z,7.10
2022-12-03T14:34:37.951Z,5.28
2022-12-03T14:39:39.800Z,7.47
2022-12-03T14:44:48.020Z,7.07
2022-12-03T14:49:49.826Z,9.40
2022-12-03T14:54:51.277Z,7.35
2022-12-03T14:59:53.141Z,9.45
2022-12-03T15:04:54.803Z,9.98
2022-12-03T15:09:56.731Z,12.27
2022-12-03T15:14:58.424Z,12.02
2022-12-03T15:20:00.092Z,16.92
2022-12-03T15:25:03.340Z,11.05
2022-12-03T15:30:05.681Z,15.95
2022-12-03T15:35:07.464Z,11.38
2022-12-03T15:40:09.211Z,15.00
2022-12-03T15:45:15.000Z,17.88
2022-12-03T15:50:17.550Z,13.80
2022-12-03T15:55:19.022Z,13.52
2022-12-03T16:00:20.835Z,16.33
2022-12-03T16:05:22.307Z,13.70
2022-12-03T16:10:23.778Z,12.20
2022-12-03T16:15:27.152Z,17.92
2022-12-03T16:20:28.942Z,12.40
2022-12-03T16:25:30.401Z,16.70
2022-12-03T16:30:31.886Z,13.02
2022-12-03T16:35:33.339Z,12.98
2022-12-03T16:40:34.806Z,13.23
2022-12-03T16:45:46.136Z,11.00
2022-12-03T16:50:47.604Z,12.98
2022-12-03T16:55:49.068Z,11.98
2022-12-03T17:00:50.595Z,16.58
2022-12-03T17:05:52.082Z,16.48
2022-12-03T17:10:53.665Z,8.63
2022-12-03T17:15:55.218Z,9.63
2022-12-03T17:20:56.702Z,10.85
2022-12-03T17:25:58.174Z,13.05
2022-12-03T17:30:59.692Z,10.13
2022-12-03T17:36:01.258Z,6.97
2022-12-03T17:41:02.750Z,8.98
2022-12-03T17:46:05.137Z,8.27
2022-12-03T17:51:06.656Z,7.95
2022-12-03T17:56:08.116Z,9.15
2022-12-03T18:01:10.443Z,10.38
2022-12-03T18:06:11.931Z,11.15
2022-12-03T18:11:13.428Z,13.27
2022-12-03T18:16:15.350Z,16.98
2022-12-03T18:21:16.912Z,17.88
2022-12-03T18:26:18.443Z,15.48
2022-12-03T18:31:20.732Z,17.33
2022-12-03T18:36:23.691Z,16.17
2022-12-03T18:41:25.170Z,16.95
2022-12-03T18:46:51.659Z,16.15
2022-12-03T18:51:48.549Z,20.60
2022-12-03T18:56:50.444Z,19.42
2022-12-03T19:01:51.939Z,16.17
2022-12-03T19:06:53.431Z,15.73
2022-12-03T19:11:54.902Z,16.85
2022-12-03T19:16:56.384Z,16.65
2022-12-03T19:21:57.904Z,15.13
2022-12-03T19:26:59.365Z,15.35
2022-12-03T19:32:00.963Z,13.77
2022-12-03T19:37:02.570Z,15.30
2022-12-03T19:42:04.234Z,14.73
2022-12-03T19:47:05.793Z,15.65
2022-12-03T19:52:07.322Z,11.27
2022-12-03T19:57:08.885Z,10.80
2022-12-03T20:02:10.911Z,14.32
2022-12-03T20:07:12.451Z,14.02
2022-12-03T20:12:13.917Z,13.90
2022-12-03T20:17:15.362Z,12.52
2022-12-03T20:22:16.822Z,14.10
2022-12-03T20:27:22.647Z,15.48
2022-12-03T20:32:24.554Z,12.80
2022-12-03T20:37:26.041Z,14.13
2022-12-03T20:42:27.529Z,12.57
2022-12-03T20:47:28.993Z,12.65
2022-12-03T20:52:30.496Z,14.52
2022-12-03T20:57:31.990Z,14.30
2022-12-03T21:02:33.504Z,14.02
2022-12-03T21:07:35.067Z,16.02
2022-12-03T21:12:36.567Z,15.95
2022-12-03T21:17:38.243Z,13.90
2022-12-03T21:22:39.751Z,18.30
2022-12-03T21:27:41.204Z,14.38
2022-12-03T21:32:42.661Z,12.30
2022-12-03T21:37:44.151Z,16.25
2022-12-03T21:42:45.599Z,12.43
2022-12-03T21:47:48.187Z,14.55
2022-12-03T21:52:51.207Z,10.93
2022-12-03T21:57:52.654Z,13.05
2022-12-03T22:02:54.270Z,13.73
2022-12-03T22:07:55.845Z,14.90
2022-12-03T22:12:57.353Z,16.67
2022-12-03T22:17:58.918Z,14.68
2022-12-03T22:23:00.399Z,17.65
2022-12-03T22:28:01.893Z,17.38
2022-12-03T22:33:03.436Z,17.88
2022-12-03T22:38:04.916Z,19.17
2022-12-03T22:43:06.376Z,18.05
2022-12-03T22:48:07.848Z,17.33
2022-12-03T22:53:09.336Z,19.08
2022-12-03T22:58:11.122Z,15.93
2022-12-03T23:03:12.746Z,17.90
2022-12-03T23:08:15.904Z,16.35
2022-12-03T23:13:17.691Z,21.15
2022-12-03T23:18:19.287Z,21.65
2022-12-03T23:23:21.183Z,17.42
2022-12-03T23:28:22.650Z,16.95
2022-12-03T23:33:24.200Z,13.38
2022-12-03T23:38:25.668Z,18.55
2022-12-03T23:43:27.115Z,14.35
2022-12-03T23:48:29.002Z,13.13
2022-12-03T23:53:30.630Z,15.32
2022-12-03T23:58:32.226Z,14.65
